Time;durP1;ratioP1;P1;durP2;ratioP2;P2;SDS_P1;SDS_P2;PMS_P1;PMS_P2;Temp;Humidity;BMP_temperature;BMP_pressure;BME280_temperature;BME280_humidity;BME280_pressure;Samples;Min_cycle;Max_cycle;Signal;HPM_P1;HPM_P2
2023/08/24 00:00:48;;;;;;;;;;;23.00;99.90;;;;;;7610486;19;20475;-77
2023/08/24 00:03:22;;;;;;;;;;;23.00;99.90;;;;;;7615420;19;19994;-76
2023/08/24 00:05:55;;;;;;;;;;;23.00;99.90;;;;;;7610496;19;19931;-75
2023/08/24 00:08:27;;;;;;;;;;;23.00;99.90;;;;;;7610302;19;19934;-76
2023/08/24 00:11:00;;;;;;;;;;;23.00;99.90;;;;;;7611825;19;20002;-76
2023/08/24 00:13:32;;;;;;;;;;;22.90;99.90;;;;;;7610146;19;20006;-77
2023/08/24 00:16:04;;;;;;;;;;;22.90;99.90;;;;;;7610048;19;19942;-75
2023/08/24 00:18:37;;;;;;;;;;;22.80;99.90;;;;;;7610867;19;20360;-76
2023/08/24 00:21:09;;;;;;;;;;;22.80;99.90;;;;;;7607473;19;20276;-75
2023/08/24 00:23:41;;;;;;;;;;;22.70;99.90;;;;;;7612037;19;20829;-77
2023/08/24 00:26:16;;;;;;;;;;;22.70;99.90;;;;;;7611573;19;19919;-77
2023/08/24 00:28:48;;;;;;;;;;;22.60;99.90;;;;;;7611110;19;19919;-76
2023/08/24 00:31:21;;;;;;;;;;;22.60;99.90;;;;;;7606766;19;19922;-76
2023/08/24 00:33:54;;;;;;;;;;;22.60;99.90;;;;;;7608891;19;19926;-77
2023/08/24 00:36:29;;;;;;;;;;;22.50;99.90;;;;;;7606266;19;19918;-76
2023/08/24 00:39:01;;;;;;;;;;;22.50;99.90;;;;;;7612342;19;20496;-77
2023/08/24 00:41:34;;;;;;;;;;;22.50;99.90;;;;;;7609041;19;20349;-76
2023/08/24 00:44:07;;;;;;;;;;;22.50;99.90;;;;;;7608760;19;19923;-77
2023/08/24 00:46:39;;;;;;;;;;;22.40;99.90;;;;;;7610132;19;19923;-76
2023/08/24 00:49:11;;;;;;;;;;;22.40;99.90;;;;;;7616654;19;20977;-76
2023/08/24 00:51:45;;;;;;;;;;;22.30;99.90;;;;;;7617019;19;19966;-75
2023/08/24 00:54:18;;;;;;;;;;;22.30;99.90;;;;;;7620291;19;19914;-75
2023/08/24 00:56:51;;;;;;;;;;;22.30;99.90;;;;;;7615521;19;19918;-76
2023/08/24 00:59:23;;;;;;;;;;;22.30;99.90;;;;;;7618878;19;19934;-76
2023/08/24 01:01:55;;;;;;;;;;;22.20;99.90;;;;;;7616194;19;19963;-76
2023/08/24 01:04:28;;;;;;;;;;;22.20;99.90;;;;;;7620889;19;20573;-76
2023/08/24 01:07:00;;;;;;;;;;;22.20;99.90;;;;;;7611093;19;19962;-75
2023/08/24 01:09:32;;;;;;;;;;;22.20;99.90;;;;;;7615777;19;19931;-77
2023/08/24 01:12:06;;;;;;;;;;;22.10;99.90;;;;;;7616786;19;19986;-75
2023/08/24 01:14:42;;;;;;;;;;;22.10;99.90;;;;;;7616799;19;21336;-76
2023/08/24 01:17:16;;;;;;;;;;;22.00;99.90;;;;;;7612511;19;19926;-76
2023/08/24 01:19:49;;;;;;;;;;;22.00;99.90;;;;;;7615009;19;20312;-75
2023/08/24 01:22:27;;;;;;;;;;;22.00;99.90;;;;;;7613675;19;20676;-75
2023/08/24 01:25:11;;;;;;;;;;;22.00;99.90;;;;;;7616033;19;19914;-76
2023/08/24 01:27:43;;;;;;;;;;;21.90;99.90;;;;;;7615191;19;20857;-77
2023/08/24 01:30:15;;;;;;;;;;;21.80;99.90;;;;;;7613744;19;19914;-76
2023/08/24 01:32:47;;;;;;;;;;;21.90;99.90;;;;;;7614432;19;19929;-75
2023/08/24 01:35:19;;;;;;;;;;;21.80;99.90;;;;;;7611634;19;20498;-76
2023/08/24 01:37:52;;;;;;;;;;;21.80;99.90;;;;;;7612815;19;19948;-76
2023/08/24 01:40:26;;;;;;;;;;;21.70;99.90;;;;;;7619754;19;19915;-76
2023/08/24 01:43:03;;;;;;;;;;;21.70;99.90;;;;;;7602549;19;19930;-76
2023/08/24 01:45:35;;;;;;;;;;;21.70;99.90;;;;;;7612792;19;19930;-76
2023/08/24 01:48:09;;;;;;;;;;;21.70;99.90;;;;;;7616304;19;20356;-77
2023/08/24 01:50:41;;;;;;;;;;;21.60;99.90;;;;;;7612466;19;19910;-77
2023/08/24 01:53:13;;;;;;;;;;;21.60;99.90;;;;;;7613449;19;21285;-77
2023/08/24 01:55:46;;;;;;;;;;;21.60;99.90;;;;;;7613944;19;19957;-77
2023/08/24 01:58:18;;;;;;;;;;;21.60;99.90;;;;;;7606776;19;19914;-75
2023/08/24 02:00:51;;;;;;;;;;;21.60;99.90;;;;;;7609903;19;19942;-76
2023/08/24 02:03:25;;;;;;;;;;;21.50;99.90;;;;;;7613111;19;19927;-77
2023/08/24 02:05:57;;;;;;;;;;;21.50;99.90;;;;;;7607128;19;20547;-75
2023/08/24 02:08:29;;;;;;;;;;;21.50;99.90;;;;;;7613542;19;20341;-77
2023/08/24 02:11:02;;;;;;;;;;;21.50;99.90;;;;;;7605646;19;19930;-75
2023/08/24 02:13:36;;;;;;;;;;;21.40;99.90;;;;;;7614827;19;19927;-75
2023/08/24 02:16:09;;;;;;;;;;;21.40;99.90;;;;;;7605888;19;19931;-75
2023/08/24 02:18:41;;;;;;;;;;;21.40;99.90;;;;;;7612786;19;20730;-75
2023/08/24 02:21:15;;;;;;;;;;;21.40;99.90;;;;;;7607209;19;19918;-76
2023/08/24 02:23:47;;;;;;;;;;;21.30;99.90;;;;;;7610638;19;19923;-75
2023/08/24 02:26:21;;;;;;;;;;;21.30;99.90;;;;;;7609932;19;20321;-76
2023/08/24 02:28:53;;;;;;;;;;;21.30;99.90;;;;;;7608780;19;20903;-76
2023/08/24 02:31:25;;;;;;;;;;;21.30;99.90;;;;;;7593003;19;20145;-76
2023/08/24 02:33:57;;;;;;;;;;;21.20;99.90;;;;;;7605531;19;20010;-75
2023/08/24 02:36:32;;;;;;;;;;;21.20;99.90;;;;;;7599610;19;19952;-75
2023/08/24 02:39:05;;;;;;;;;;;21.20;99.90;;;;;;7608775;19;19922;-77
2023/08/24 02:41:37;;;;;;;;;;;21.10;99.90;;;;;;7614585;19;19919;-75
2023/08/24 02:44:09;;;;;;;;;;;21.10;99.90;;;;;;7609522;19;19998;-76
2023/08/24 02:46:44;;;;;;;;;;;21.00;99.90;;;;;;7610997;19;20336;-75
2023/08/24 02:49:16;;;;;;;;;;;21.10;99.90;;;;;;7610136;19;19946;-75
2023/08/24 02:51:49;;;;;;;;;;;21.10;99.90;;;;;;7611385;19;20806;-77
2023/08/24 02:54:21;;;;;;;;;;;21.10;99.90;;;;;;7611433;19;20221;-77
2023/08/24 02:56:53;;;;;;;;;;;21.00;99.90;;;;;;7610058;19;19915;-76
2023/08/24 02:59:26;;;;;;;;;;;21.00;99.90;;;;;;7604205;19;20265;-76
2023/08/24 03:01:58;;;;;;;;;;;21.00;99.90;;;;;;7611482;19;19935;-74
2023/08/24 03:04:30;;;;;;;;;;;21.00;99.90;;;;;;7612126;19;19926;-75
2023/08/24 03:07:02;;;;;;;;;;;20.90;99.90;;;;;;7603220;19;19950;-75
2023/08/24 03:09:35;;;;;;;;;;;20.90;99.90;;;;;;7609158;19;19991;-75
2023/08/24 03:12:08;;;;;;;;;;;20.90;99.90;;;;;;7606325;19;19926;-77
2023/08/24 03:14:40;;;;;;;;;;;20.90;99.90;;;;;;7613816;19;19922;-75
2023/08/24 03:17:13;;;;;;;;;;;20.80;99.90;;;;;;7604502;19;19960;-76
2023/08/24 03:19:45;;;;;;;;;;;20.80;99.90;;;;;;7611941;19;20237;-75
2023/08/24 03:22:17;;;;;;;;;;;20.80;99.90;;;;;;7613614;19;19922;-77
2023/08/24 03:24:49;;;;;;;;;;;20.70;99.90;;;;;;7609155;19;19919;-77
2023/08/24 03:27:22;;;;;;;;;;;20.70;99.90;;;;;;7608289;19;20820;-75
2023/08/24 03:29:54;;;;;;;;;;;20.70;99.90;;;;;;7611054;19;19927;-77
2023/08/24 03:32:26;;;;;;;;;;;20.70;99.90;;;;;;7607719;19;19922;-76
2023/08/24 03:34:59;;;;;;;;;;;20.70;99.90;;;;;;7607201;19;19926;-76
2023/08/24 03:37:31;;;;;;;;;;;20.70;99.90;;;;;;7606811;19;19923;-76
2023/08/24 03:40:04;;;;;;;;;;;20.70;99.90;;;;;;7611785;19;20337;-75
2023/08/24 03:42:36;;;;;;;;;;;20.70;99.90;;;;;;7608598;19;19929;-76
2023/08/24 03:45:08;;;;;;;;;;;20.70;99.90;;;;;;7611168;19;19923;-75
2023/08/24 03:47:42;;;;;;;;;;;20.70;99.90;;;;;;7608879;19;19934;-76
2023/08/24 03:50:15;;;;;;;;;;;20.70;99.90;;;;;;7607150;19;20789;-75
2023/08/24 03:52:51;;;;;;;;;;;20.60;99.90;;;;;;7608269;19;19925;-75
2023/08/24 03:55:23;;;;;;;;;;;20.60;99.90;;;;;;7607204;19;19926;-76
2023/08/24 03:57:56;;;;;;;;;;;20.50;99.90;;;;;;7608335;19;20554;-76
2023/08/24 04:00:30;;;;;;;;;;;20.50;99.90;;;;;;7605938;19;19925;-75
2023/08/24 04:03:04;;;;;;;;;;;20.50;99.90;;;;;;7611090;19;19930;-77
2023/08/24 04:05:36;;;;;;;;;;;20.50;99.90;;;;;;7608157;19;19915;-75
2023/08/24 04:08:09;;;;;;;;;;;20.50;99.90;;;;;;7607837;19;19999;-75
2023/08/24 04:10:41;;;;;;;;;;;20.50;99.90;;;;;;7608977;19;19934;-75
2023/08/24 04:13:13;;;;;;;;;;;20.50;99.90;;;;;;7609662;19;19922;-76
2023/08/24 04:15:47;;;;;;;;;;;20.50;99.90;;;;;;7602181;19;20335;-75
2023/08/24 04:18:21;;;;;;;;;;;20.50;99.90;;;;;;7609649;19;19922;-77
2023/08/24 04:20:53;;;;;;;;;;;20.50;99.90;;;;;;7608154;19;20015;-76
2023/08/24 04:23:26;;;;;;;;;;;20.50;99.90;;;;;;7611366;19;19943;-75
2023/08/24 04:25:59;;;;;;;;;;;20.50;99.90;;;;;;7615319;19;19926;-76
2023/08/24 04:28:31;;;;;;;;;;;20.40;99.90;;;;;;7608679;19;19923;-75
2023/08/24 04:31:03;;;;;;;;;;;20.40;99.90;;;;;;7616795;19;19950;-77
2023/08/24 04:33:35;;;;;;;;;;;20.30;99.90;;;;;;7616772;19;19922;-76
2023/08/24 04:36:07;;;;;;;;;;;20.40;99.90;;;;;;7620874;19;19922;-76
2023/08/24 04:38:40;;;;;;;;;;;20.40;99.90;;;;;;7614109;19;20524;-75
2023/08/24 04:41:12;;;;;;;;;;;20.40;99.90;;;;;;7616608;19;19992;-75
2023/08/24 04:43:44;;;;;;;;;;;20.40;99.90;;;;;;7614402;19;19943;-77
2023/08/24 04:46:17;;;;;;;;;;;20.40;99.90;;;;;;7613323;19;21092;-76
2023/08/24 04:48:49;;;;;;;;;;;20.30;99.90;;;;;;7616167;19;19930;-75
2023/08/24 04:51:21;;;;;;;;;;;20.30;99.90;;;;;;7600048;19;20884;-76
2023/08/24 04:53:53;;;;;;;;;;;20.30;99.90;;;;;;7616304;19;20630;-76
2023/08/24 04:56:25;;;;;;;;;;;20.30;99.90;;;;;;7607545;19;19923;-74
2023/08/24 04:59:00;;;;;;;;;;;20.30;99.90;;;;;;7615633;19;19923;-76
2023/08/24 05:01:32;;;;;;;;;;;20.20;99.90;;;;;;7614037;19;20836;-74
2023/08/24 05:04:04;;;;;;;;;;;20.30;99.90;;;;;;7617169;19;19922;-75
2023/08/24 05:06:36;;;;;;;;;;;20.30;99.90;;;;;;7607238;19;19949;-75
2023/08/24 05:09:08;;;;;;;;;;;20.30;99.90;;;;;;7618451;19;20040;-74
2023/08/24 05:11:41;;;;;;;;;;;20.30;99.90;;;;;;7613608;19;19914;-75
2023/08/24 05:14:13;;;;;;;;;;;20.30;99.90;;;;;;7615244;19;19926;-77
2023/08/24 05:16:46;;;;;;;;;;;20.30;99.90;;;;;;7612829;19;19926;-76
2023/08/24 05:19:18;;;;;;;;;;;20.40;99.90;;;;;;7613224;19;19926;-75
2023/08/24 05:21:50;;;;;;;;;;;20.40;99.90;;;;;;7613860;19;19923;-76
2023/08/24 05:24:22;;;;;;;;;;;20.50;99.90;;;;;;7617088;19;19934;-76
2023/08/24 05:26:54;;;;;;;;;;;20.50;99.90;;;;;;7613480;19;19934;-75
2023/08/24 05:29:26;;;;;;;;;;;20.50;99.90;;;;;;7613617;19;19919;-76
2023/08/24 05:31:58;;;;;;;;;;;20.60;99.90;;;;;;7612227;19;19945;-75
2023/08/24 05:34:31;;;;;;;;;;;20.70;99.90;;;;;;7614564;19;19997;-75
2023/08/24 05:37:04;;;;;;;;;;;20.80;99.90;;;;;;7612414;19;19919;-76
2023/08/24 05:39:36;;;;;;;;;;;20.90;99.90;;;;;;7615224;19;19929;-75
2023/08/24 05:42:08;;;;;;;;;;;20.90;99.90;;;;;;7617923;19;20265;-75
2023/08/24 05:44:40;;;;;;;;;;;21.00;99.90;;;;;;7612483;19;19934;-76
2023/08/24 05:47:13;;;;;;;;;;;21.10;99.90;;;;;;7613585;19;19958;-77
2023/08/24 05:49:45;;;;;;;;;;;21.10;99.90;;;;;;7611496;19;20492;-75
2023/08/24 05:52:17;;;;;;;;;;;21.20;99.90;;;;;;7610675;19;19958;-75
2023/08/24 05:54:49;;;;;;;;;;;21.30;99.90;;;;;;7615228;19;20862;-76
2023/08/24 05:57:21;;;;;;;;;;;21.30;99.90;;;;;;7613856;19;20380;-75
2023/08/24 05:59:54;;;;;;;;;;;21.30;99.90;;;;;;7615452;19;20444;-75
2023/08/24 06:02:26;;;;;;;;;;;21.40;99.90;;;;;;7613235;19;19954;-75
2023/08/24 06:04:58;;;;;;;;;;;21.50;99.90;;;;;;7613382;19;20364;-75
2023/08/24 06:07:30;;;;;;;;;;;21.60;99.90;;;;;;7610719;19;21408;-77
2023/08/24 06:10:02;;;;;;;;;;;21.70;99.90;;;;;;7614113;19;19976;-76
2023/08/24 06:12:37;;;;;;;;;;;21.80;99.90;;;;;;7613859;19;20503;-75
2023/08/24 06:15:10;;;;;;;;;;;22.10;99.90;;;;;;7612730;19;19930;-75
2023/08/24 06:17:43;;;;;;;;;;;22.10;99.90;;;;;;7613329;19;19914;-76
2023/08/24 06:20:15;;;;;;;;;;;22.30;99.90;;;;;;7614718;19;19993;-76
2023/08/24 06:22:47;;;;;;;;;;;22.30;99.90;;;;;;7612742;19;20287;-75
2023/08/24 06:25:19;;;;;;;;;;;22.40;99.90;;;;;;7609401;19;19923;-76
2023/08/24 06:27:51;;;;;;;;;;;22.40;99.90;;;;;;7613052;19;19931;-75
2023/08/24 06:30:24;;;;;;;;;;;22.50;99.90;;;;;;7614989;19;19923;-76
2023/08/24 06:32:56;;;;;;;;;;;22.70;99.90;;;;;;7614828;19;19926;-76
2023/08/24 06:35:29;;;;;;;;;;;22.80;99.90;;;;;;7610145;19;20010;-75
2023/08/24 06:38:01;;;;;;;;;;;22.90;99.90;;;;;;7611927;19;19919;-76
2023/08/24 06:40:34;;;;;;;;;;;22.90;99.90;;;;;;7612254;19;19922;-77
2023/08/24 06:43:06;;;;;;;;;;;23.10;99.90;;;;;;7618753;19;19938;-76
2023/08/24 06:45:38;;;;;;;;;;;23.10;99.90;;;;;;7607644;19;21663;-75
2023/08/24 06:48:10;;;;;;;;;;;23.20;99.90;;;;;;7610266;19;19966;-76
2023/08/24 06:50:42;;;;;;;;;;;23.30;99.90;;;;;;7608839;19;19929;-76
2023/08/24 06:53:17;;;;;;;;;;;23.40;99.90;;;;;;7613425;19;19926;-75
2023/08/24 06:55:53;;;;;;;;;;;23.50;99.90;;;;;;7613391;19;19951;-77
2023/08/24 06:58:25;;;;;;;;;;;23.70;99.90;;;;;;7605450;19;20587;-76
2023/08/24 07:00:58;;;;;;;;;;;23.80;99.90;;;;;;7614937;19;20756;-76
2023/08/24 07:03:31;;;;;;;;;;;24.00;99.90;;;;;;7607835;19;19922;-74
2023/08/24 07:06:05;;;;;;;;;;;24.00;99.90;;;;;;7610702;19;19922;-75
2023/08/24 07:08:37;;;;;;;;;;;24.10;99.90;;;;;;7611005;19;19936;-76
2023/08/24 07:11:10;;;;;;;;;;;24.20;99.90;;;;;;7612492;19;20002;-75
2023/08/24 07:13:42;;;;;;;;;;;24.30;99.90;;;;;;7610483;19;19922;-76
2023/08/24 07:16:14;;;;;;;;;;;24.50;99.90;;;;;;7608936;19;19914;-75
2023/08/24 07:18:46;;;;;;;;;;;24.60;99.90;;;;;;7609690;19;19926;-76
2023/08/24 07:21:18;;;;;;;;;;;24.70;99.90;;;;;;7599094;19;20503;-77
2023/08/24 07:23:51;;;;;;;;;;;24.90;99.90;;;;;;7612245;19;19915;-74
2023/08/24 07:26:25;;;;;;;;;;;25.10;99.90;;;;;;7606773;19;19921;-75
2023/08/24 07:28:58;;;;;;;;;;;25.10;99.90;;;;;;7614851;19;19918;-76
2023/08/24 07:31:30;;;;;;;;;;;25.40;99.90;;;;;;7608764;19;19918;-75
2023/08/24 07:34:03;;;;;;;;;;;25.50;99.90;;;;;;7615904;19;19918;-76
2023/08/24 07:36:35;;;;;;;;;;;25.60;99.90;;;;;;7602356;19;19929;-77
2023/08/24 07:39:07;;;;;;;;;;;25.70;99.90;;;;;;7617374;19;19938;-75
2023/08/24 07:41:39;;;;;;;;;;;25.80;99.90;;;;;;7607451;19;19954;-75
2023/08/24 07:44:11;;;;;;;;;;;25.80;99.90;;;;;;7611803;19;19926;-76
2023/08/24 07:46:44;;;;;;;;;;;26.00;99.90;;;;;;7601937;19;19918;-75
2023/08/24 07:49:16;;;;;;;;;;;26.20;99.90;;;;;;7608698;19;19914;-74
2023/08/24 07:51:48;;;;;;;;;;;26.30;99.90;;;;;;7610913;19;19950;-77
2023/08/24 07:54:20;;;;;;;;;;;26.40;99.90;;;;;;7617285;19;19918;-76
2023/08/24 07:56:52;;;;;;;;;;;26.50;99.90;;;;;;7611665;19;20253;-76
2023/08/24 07:59:25;;;;;;;;;;;26.70;99.90;;;;;;7613042;19;19994;-73
2023/08/24 08:01:57;;;;;;;;;;;26.80;99.90;;;;;;7613795;19;19962;-75
2023/08/24 08:04:29;;;;;;;;;;;26.90;99.90;;;;;;7605113;19;19937;-76
2023/08/24 08:07:02;;;;;;;;;;;26.90;99.90;;;;;;7611718;19;20420;-77
2023/08/24 08:09:35;;;;;;;;;;;26.90;99.90;;;;;;7610131;19;20404;-76
2023/08/24 08:12:08;;;;;;;;;;;27.00;99.90;;;;;;7611209;19;19943;-77
2023/08/24 08:14:40;;;;;;;;;;;27.20;99.90;;;;;;7606394;19;19956;-75
2023/08/24 08:17:13;;;;;;;;;;;27.30;99.90;;;;;;7609214;19;19911;-77
2023/08/24 08:19:45;;;;;;;;;;;27.40;99.90;;;;;;7604840;19;21273;-77
2023/08/24 08:22:18;;;;;;;;;;;27.50;99.90;;;;;;7610772;19;19922;-77
2023/08/24 08:24:50;;;;;;;;;;;27.50;99.90;;;;;;7608049;19;20934;-75
2023/08/24 08:27:23;;;;;;;;;;;27.70;99.90;;;;;;7613806;19;19915;-74
2023/08/24 08:29:55;;;;;;;;;;;27.70;99.90;;;;;;7605801;19;19922;-76
2023/08/24 08:32:28;;;;;;;;;;;27.80;99.90;;;;;;7609664;19;20890;-75
2023/08/24 08:35:01;;;;;;;;;;;27.80;99.90;;;;;;7609905;19;19961;-76
2023/08/24 08:37:33;;;;;;;;;;;27.80;99.90;;;;;;7612428;19;19922;-74
2023/08/24 08:40:09;;;;;;;;;;;27.80;99.90;;;;;;7611230;19;19918;-76
2023/08/24 08:42:41;;;;;;;;;;;27.90;99.90;;;;;;7613486;19;19919;-74
2023/08/24 08:45:14;;;;;;;;;;;27.90;99.90;;;;;;7615491;19;19919;-74
2023/08/24 08:47:46;;;;;;;;;;;28.00;99.90;;;;;;7606340;19;19952;-77
2023/08/24 08:50:19;;;;;;;;;;;28.00;99.90;;;;;;7610244;19;19918;-75
2023/08/24 08:52:52;;;;;;;;;;;28.20;99.90;;;;;;7603257;19;19923;-76
2023/08/24 08:55:25;;;;;;;;;;;28.10;99.90;;;;;;7608326;19;19956;-76
2023/08/24 08:57:58;;;;;;;;;;;28.30;99.90;;;;;;7604158;19;19949;-75
2023/08/24 09:00:31;;;;;;;;;;;28.30;99.90;;;;;;7612923;19;19923;-76
2023/08/24 09:03:04;;;;;;;;;;;28.20;99.90;;;;;;7607193;19;19930;-76
2023/08/24 09:05:37;;;;;;;;;;;28.30;99.90;;;;;;7606051;19;19954;-76
2023/08/24 09:08:09;;;;;;;;;;;28.30;99.90;;;;;;7611153;19;19930;-76
2023/08/24 09:10:42;;;;;;;;;;;28.30;99.90;;;;;;7622379;19;20277;-76
2023/08/24 09:13:14;;;;;;;;;;;28.40;99.90;;;;;;7614993;19;19919;-77
2023/08/24 09:15:46;;;;;;;;;;;28.40;99.90;;;;;;7614176;19;19934;-75
2023/08/24 09:18:19;;;;;;;;;;;28.60;99.90;;;;;;7617212;19;19922;-76
2023/08/24 09:20:51;;;;;;;;;;;28.80;99.90;;;;;;7615147;19;21121;-75
2023/08/24 09:23:24;;;;;;;;;;;28.90;99.90;;;;;;7621289;19;20268;-76
2023/08/24 09:25:56;;;;;;;;;;;28.90;99.90;;;;;;7612310;19;19929;-75
2023/08/24 09:28:29;;;;;;;;;;;29.00;99.90;;;;;;7619994;19;19922;-77
2023/08/24 09:31:01;;;;;;;;;;;28.80;99.90;;;;;;7611196;19;19954;-75
2023/08/24 09:33:35;;;;;;;;;;;28.80;99.90;;;;;;7614314;19;19995;-76
2023/08/24 09:36:08;;;;;;;;;;;28.80;99.90;;;;;;7613510;19;19970;-77
2023/08/24 09:38:46;;;;;;;;;;;28.90;99.90;;;;;;7615010;19;20014;-75
2023/08/24 09:41:19;;;;;;;;;;;29.00;99.90;;;;;;7616854;19;19930;-77
2023/08/24 09:43:51;;;;;;;;;;;29.00;99.90;;;;;;7613475;19;19956;-77
2023/08/24 09:46:24;;;;;;;;;;;29.10;99.90;;;;;;7612509;19;19934;-76
2023/08/24 09:48:59;;;;;;;;;;;29.30;99.90;;;;;;7615306;19;19927;-75
2023/08/24 09:51:31;;;;;;;;;;;29.40;99.90;;;;;;7612906;19;19922;-76
2023/08/24 09:54:10;;;;;;;;;;;29.50;99.90;;;;;;7615421;19;20006;-76
2023/08/24 09:56:43;;;;;;;;;;;29.70;99.90;;;;;;7613632;19;19926;-75
2023/08/24 09:59:21;;;;;;;;;;;29.90;99.50;;;;;;7615595;19;19918;-77
2023/08/24 10:01:56;;;;;;;;;;;30.00;99.30;;;;;;7614008;19;20948;-76
2023/08/24 10:04:30;;;;;;;;;;;30.10;99.70;;;;;;7610412;19;19919;-74
2023/08/24 10:07:05;;;;;;;;;;;30.10;98.70;;;;;;7612162;19;19938;-75
2023/08/24 10:09:43;;;;;;;;;;;30.20;98.20;;;;;;7615231;19;19937;-76
2023/08/24 10:12:18;;;;;;;;;;;30.30;98.30;;;;;;7615330;19;20712;-76
2023/08/24 10:14:56;;;;;;;;;;;30.40;98.10;;;;;;7612938;19;20547;-75
2023/08/24 10:17:29;;;;;;;;;;;30.40;97.80;;;;;;7614375;19;19927;-76
2023/08/24 10:20:05;;;;;;;;;;;30.30;97.40;;;;;;7612661;19;20384;-75
2023/08/24 10:22:40;;;;;;;;;;;30.30;97.30;;;;;;7610623;19;19926;-75
2023/08/24 10:25:13;;;;;;;;;;;30.50;97.00;;;;;;7616101;19;19930;-75
2023/08/24 10:27:47;;;;;;;;;;;30.50;97.00;;;;;;7616236;19;19930;-76
2023/08/24 10:30:20;;;;;;;;;;;30.60;97.10;;;;;;7617887;19;19926;-76
2023/08/24 10:32:53;;;;;;;;;;;30.60;97.80;;;;;;7613884;19;19914;-77
2023/08/24 10:35:26;;;;;;;;;;;30.80;97.10;;;;;;7611999;19;19930;-77
2023/08/24 10:37:59;;;;;;;;;;;30.90;95.80;;;;;;7611941;19;19923;-75
2023/08/24 10:40:35;;;;;;;;;;;30.80;95.80;;;;;;7612777;19;19923;-75
2023/08/24 10:43:11;;;;;;;;;;;30.80;95.70;;;;;;7619140;19;21311;-74
2023/08/24 10:45:59;;;;;;;;;;;30.80;95.80;;;;;;7606364;19;19941;-75
2023/08/24 10:48:41;;;;;;;;;;;30.90;95.40;;;;;;7612727;19;19926;-75
2023/08/24 10:51:16;;;;;;;;;;;30.90;95.40;;;;;;7602791;19;19922;-76
2023/08/24 10:53:52;;;;;;;;;;;31.00;95.40;;;;;;7608439;19;19918;-76
2023/08/24 10:56:36;;;;;;;;;;;31.10;94.60;;;;;;7612628;19;19922;-76
2023/08/24 10:59:09;;;;;;;;;;;31.20;92.80;;;;;;7615592;19;19958;-75
2023/08/24 11:01:42;;;;;;;;;;;31.20;92.60;;;;;;7612376;19;19922;-75
2023/08/24 11:04:14;;;;;;;;;;;31.20;93.10;;;;;;7614736;19;19945;-75
2023/08/24 11:06:52;;;;;;;;;;;31.40;91.80;;;;;;7607331;19;19914;-76
2023/08/24 11:09:25;;;;;;;;;;;31.70;90.80;;;;;;7618774;19;19931;-76
2023/08/24 11:11:58;;;;;;;;;;;31.60;90.40;;;;;;7618747;19;19986;-75
2023/08/24 11:14:32;;;;;;;;;;;31.80;91.10;;;;;;7612180;19;19936;-74
2023/08/24 11:17:17;;;;;;;;;;;31.90;90.80;;;;;;7610825;19;19938;-76
2023/08/24 11:19:51;;;;;;;;;;;31.80;90.60;;;;;;7607181;19;19926;-75
2023/08/24 11:22:25;;;;;;;;;;;32.30;90.20;;;;;;7614307;19;19922;-75
2023/08/24 11:24:57;;;;;;;;;;;32.70;90.60;;;;;;7615382;19;19943;-75
2023/08/24 11:27:30;;;;;;;;;;;33.00;88.50;;;;;;7612998;19;19938;-75
2023/08/24 11:30:05;;;;;;;;;;;33.30;84.60;;;;;;7612854;19;19919;-76
2023/08/24 11:32:37;;;;;;;;;;;33.60;85.40;;;;;;7612783;19;19922;-76
2023/08/24 11:35:11;;;;;;;;;;;33.80;86.50;;;;;;7608419;19;20401;-75
2023/08/24 11:37:43;;;;;;;;;;;34.20;82.00;;;;;;7612550;19;19945;-75
2023/08/24 11:40:20;;;;;;;;;;;34.40;82.00;;;;;;7614976;19;20709;-75
2023/08/24 11:42:55;;;;;;;;;;;34.60;78.20;;;;;;7615250;19;19926;-76
2023/08/24 11:45:32;;;;;;;;;;;34.60;76.80;;;;;;7614667;19;19922;-76
2023/08/24 11:48:04;;;;;;;;;;;34.70;77.20;;;;;;7613587;19;21308;-76
2023/08/24 11:50:37;;;;;;;;;;;34.70;77.00;;;;;;7616641;19;19921;-75
2023/08/24 11:53:09;;;;;;;;;;;34.70;77.70;;;;;;7609577;19;19926;-77
2023/08/24 11:55:41;;;;;;;;;;;35.10;76.40;;;;;;7613661;19;19943;-75
2023/08/24 11:58:30;;;;;;;;;;;35.20;71.70;;;;;;7613312;19;19938;-75
2023/08/24 12:01:02;;;;;;;;;;;35.30;71.10;;;;;;7612948;19;19968;-75
2023/08/24 12:03:35;;;;;;;;;;;35.40;64.90;;;;;;7617140;19;19925;-74
2023/08/24 12:06:11;;;;;;;;;;;35.40;69.30;;;;;;7611049;19;19915;-74
2023/08/24 12:08:47;;;;;;;;;;;35.60;70.80;;;;;;7614002;19;19956;-74
2023/08/24 12:11:20;;;;;;;;;;;35.60;71.40;;;;;;7622358;19;19922;-74
2023/08/24 12:13:53;;;;;;;;;;;35.60;70.20;;;;;;7608268;19;19919;-74
2023/08/24 12:16:25;;;;;;;;;;;35.60;68.90;;;;;;7615404;19;20321;-75
2023/08/24 12:19:05;;;;;;;;;;;35.90;67.90;;;;;;7609909;19;19915;-75
2023/08/24 12:21:37;;;;;;;;;;;36.00;69.00;;;;;;7610634;19;19952;-74
2023/08/24 12:24:13;;;;;;;;;;;36.10;68.90;;;;;;7612159;19;19918;-74
2023/08/24 12:26:54;;;;;;;;;;;36.50;69.00;;;;;;7612963;19;19923;-74
2023/08/24 12:29:27;;;;;;;;;;;36.70;67.90;;;;;;7615277;19;20349;-76
2023/08/24 12:31:59;;;;;;;;;;;36.90;68.50;;;;;;7609383;19;19915;-74
2023/08/24 12:34:31;;;;;;;;;;;36.90;66.60;;;;;;7611507;19;19915;-74
2023/08/24 12:37:04;;;;;;;;;;;36.90;66.50;;;;;;7607359;19;21415;-75
2023/08/24 12:39:37;;;;;;;;;;;37.00;66.10;;;;;;7614655;19;19922;-76
2023/08/24 12:42:09;;;;;;;;;;;37.20;66.40;;;;;;7608490;19;19919;-76
2023/08/24 12:44:43;;;;;;;;;;;37.40;61.50;;;;;;7617585;19;19952;-74
2023/08/24 12:47:16;;;;;;;;;;;37.60;63.10;;;;;;7613669;19;21015;-74
2023/08/24 12:49:50;;;;;;;;;;;37.70;64.90;;;;;;7618942;19;19959;-74
2023/08/24 12:52:24;;;;;;;;;;;37.50;65.20;;;;;;7622424;19;19910;-75
2023/08/24 12:54:56;;;;;;;;;;;37.50;65.00;;;;;;7615738;19;20336;-74
2023/08/24 12:57:29;;;;;;;;;;;37.30;64.60;;;;;;7618351;19;19952;-75
2023/08/24 13:00:01;;;;;;;;;;;37.20;64.40;;;;;;7615395;19;19918;-75
2023/08/24 13:02:34;;;;;;;;;;;36.80;65.40;;;;;;7620687;19;19922;-74
2023/08/24 13:05:10;;;;;;;;;;;36.60;66.20;;;;;;7616242;19;19926;-74
2023/08/24 13:07:42;;;;;;;;;;;36.70;66.10;;;;;;7621506;19;19922;-75
2023/08/24 13:10:14;;;;;;;;;;;37.00;64.90;;;;;;7620156;19;19922;-76
2023/08/24 13:12:47;;;;;;;;;;;37.00;64.50;;;;;;7622026;19;19922;-74
2023/08/24 13:15:20;;;;;;;;;;;37.00;63.10;;;;;;7618291;19;19918;-76
2023/08/24 13:17:52;;;;;;;;;;;36.90;63.40;;;;;;7617393;19;19947;-74
2023/08/24 13:20:28;;;;;;;;;;;37.10;62.70;;;;;;7620603;19;19925;-76
2023/08/24 13:23:00;;;;;;;;;;;37.40;62.50;;;;;;7613791;19;19922;-75
2023/08/24 13:25:32;;;;;;;;;;;37.60;62.00;;;;;;7617288;19;19931;-75
2023/08/24 13:28:05;;;;;;;;;;;37.50;61.80;;;;;;7613710;19;19918;-76
2023/08/24 13:30:37;;;;;;;;;;;37.50;62.00;;;;;;7617874;19;19998;-75
2023/08/24 13:33:09;;;;;;;;;;;37.50;61.70;;;;;;7609447;19;19938;-75
2023/08/24 13:35:41;;;;;;;;;;;37.50;61.80;;;;;;7618398;19;19974;-74
2023/08/24 13:38:13;;;;;;;;;;;37.80;61.80;;;;;;7615629;19;19993;-76
2023/08/24 13:40:45;;;;;;;;;;;37.90;62.20;;;;;;7618002;19;20254;-75
2023/08/24 13:43:21;;;;;;;;;;;38.10;61.10;;;;;;7603503;19;20065;-74
2023/08/24 13:45:53;;;;;;;;;;;38.10;60.90;;;;;;7615245;19;19951;-75
2023/08/24 13:48:26;;;;;;;;;;;38.40;60.20;;;;;;7620884;19;21953;-74
2023/08/24 13:50:58;;;;;;;;;;;38.50;59.80;;;;;;7614610;19;20052;-74
2023/08/24 13:53:31;;;;;;;;;;;38.70;60.00;;;;;;7614494;19;20021;-76
2023/08/24 13:56:03;;;;;;;;;;;38.70;60.20;;;;;;7612745;19;19927;-75
2023/08/24 13:58:35;;;;;;;;;;;38.80;59.80;;;;;;7619152;19;20333;-74
2023/08/24 14:01:10;;;;;;;;;;;38.90;59.00;;;;;;7607347;19;19927;-76
2023/08/24 14:03:43;;;;;;;;;;;39.10;59.50;;;;;;7616530;19;19920;-74
2023/08/24 14:06:15;;;;;;;;;;;38.80;59.20;;;;;;7609138;19;19919;-74
2023/08/24 14:08:47;;;;;;;;;;;38.60;59.80;;;;;;7605442;19;19943;-76
2023/08/24 14:11:19;;;;;;;;;;;38.60;59.90;;;;;;7610852;19;21880;-75
2023/08/24 14:13:51;;;;;;;;;;;38.50;59.40;;;;;;7619162;19;21000;-73
2023/08/24 14:16:24;;;;;;;;;;;38.60;59.10;;;;;;7610122;19;20455;-75
2023/08/24 14:18:57;;;;;;;;;;;38.50;59.50;;;;;;7618348;19;19962;-75
2023/08/24 14:21:29;;;;;;;;;;;38.30;59.10;;;;;;7610801;19;19953;-75
2023/08/24 14:24:16;;;;;;;;;;;38.20;59.10;;;;;;7611771;19;19994;-74
2023/08/24 14:26:48;;;;;;;;;;;38.10;59.70;;;;;;7614230;19;19923;-77
2023/08/24 14:29:20;;;;;;;;;;;38.20;58.50;;;;;;7615405;19;19922;-73
2023/08/24 14:31:53;;;;;;;;;;;38.30;59.40;;;;;;7619219;19;19914;-75
2023/08/24 14:34:25;;;;;;;;;;;38.20;59.30;;;;;;7611090;19;21042;-76
2023/08/24 14:36:57;;;;;;;;;;;38.30;59.30;;;;;;7601368;19;19952;-74
2023/08/24 14:39:29;;;;;;;;;;;38.10;60.20;;;;;;7611641;19;20785;-76
2023/08/24 14:42:02;;;;;;;;;;;37.80;59.90;;;;;;7616424;19;19919;-75
2023/08/24 14:44:35;;;;;;;;;;;37.70;59.70;;;;;;7604961;19;19915;-74
2023/08/24 14:47:08;;;;;;;;;;;37.60;60.20;;;;;;7604820;19;19919;-74
2023/08/24 14:49:41;;;;;;;;;;;37.20;60.60;;;;;;7609761;19;20260;-75